Time;durP1;ratioP1;P1;durP2;ratioP2;P2;SDS_P1;SDS_P2;PMS_P1;PMS_P2;Temp;Humidity;BMP_temperature;BMP_pressure;BME280_temperature;BME280_humidity;BME280_pressure;Samples;Min_cycle;Max_cycle;Signal;HPM_P1;HPM_P2
2023/05/01 00:00:09;;;;;;;1.30;1.20;;;13.90;65.70;;;;;;6154208;23;20028;-82
2023/05/01 00:02:37;;;;;;;1.63;1.52;;;13.80;65.80;;;;;;6180763;23;20475;-82
2023/05/01 00:05:03;;;;;;;1.20;1.10;;;13.80;65.90;;;;;;6129611;23;20029;-81
2023/05/01 00:07:30;;;;;;;1.10;1.10;;;13.80;65.70;;;;;;6154081;23;20009;-81
2023/05/01 00:09:56;;;;;;;2.00;1.30;;;13.80;65.80;;;;;;6181112;23;20028;-82
2023/05/01 00:12:23;;;;;;;1.98;1.20;;;13.80;65.80;;;;;;6180496;23;20025;-82
2023/05/01 00:14:49;;;;;;;1.10;1.10;;;13.80;65.70;;;;;;6178562;23;20040;-82
2023/05/01 00:17:15;;;;;;;1.17;1.08;;;13.80;65.80;;;;;;6179885;23;20037;-81
2023/05/01 00:19:41;;;;;;;1.98;1.25;;;13.80;66.10;;;;;;6154055;23;20016;-82
2023/05/01 00:22:08;;;;;;;1.58;1.13;;;13.80;65.80;;;;;;6130048;23;20100;-82
2023/05/01 00:24:34;;;;;;;1.38;1.25;;;13.80;65.90;;;;;;6129268;23;20080;-82
2023/05/01 00:27:00;;;;;;;1.13;1.13;;;13.80;65.90;;;;;;6128926;23;20017;-82
2023/05/01 00:29:26;;;;;;;1.50;1.17;;;13.80;66.10;;;;;;6129750;23;20013;-82
2023/05/01 00:31:54;;;;;;;1.17;1.08;;;13.80;66.20;;;;;;6154107;23;20032;-82
2023/05/01 00:34:20;;;;;;;1.60;1.33;;;13.80;66.20;;;;;;6129561;23;20017;-82
2023/05/01 00:36:45;;;;;;;1.30;1.20;;;13.80;66.20;;;;;;6154529;23;20500;-82
2023/05/01 00:39:11;;;;;;;2.72;1.10;;;13.80;66.30;;;;;;6154220;23;20029;-82
2023/05/01 00:41:37;;;;;;;1.13;1.02;;;13.70;66.30;;;;;;6178738;23;20029;-81
2023/05/01 00:44:04;;;;;;;1.92;1.08;;;13.70;66.40;;;;;;6153868;23;20021;-82
2023/05/01 00:46:32;;;;;;;1.30;1.20;;;13.70;66.60;;;;;;6128874;23;20020;-82
2023/05/01 00:48:59;;;;;;;1.40;1.30;;;13.70;66.40;;;;;;6129847;23;20020;-81
2023/05/01 00:51:28;;;;;;;1.02;1.02;;;13.70;66.40;;;;;;6153703;23;20544;-80
2023/05/01 00:53:55;;;;;;;1.58;1.38;;;13.70;66.40;;;;;;6153514;23;20017;-81
2023/05/01 00:56:21;;;;;;;1.58;1.25;;;13.70;66.50;;;;;;6153667;23;20024;-80
2023/05/01 00:58:52;;;;;;;1.50;1.40;;;13.70;66.50;;;;;;6153836;23;20020;-81
2023/05/01 01:01:22;;;;;;;1.55;1.30;;;13.70;66.60;;;;;;6129404;23;20011;-81
2023/05/01 01:03:53;;;;;;;1.75;1.20;;;13.70;66.60;;;;;;6179904;23;20024;-81
2023/05/01 01:06:56;;;;;;;1.25;1.20;;;13.70;66.60;;;;;;6153451;23;20109;-81
2023/05/01 01:09:40;;;;;;;1.42;1.17;;;13.70;66.60;;;;;;6128921;23;20021;-81
2023/05/01 01:12:24;;;;;;;1.23;1.13;;;13.60;66.50;;;;;;6104274;23;20063;-81
2023/05/01 01:15:17;;;;;;;1.20;1.10;;;13.60;66.40;;;;;;6128952;23;20500;-81
2023/05/01 01:18:07;;;;;;;1.10;1.10;;;13.60;66.40;;;;;;6128894;23;20047;-81
2023/05/01 01:20:45;;;;;;;1.30;1.17;;;13.70;66.60;;;;;;6104208;23;20366;-81
2023/05/01 01:23:45;;;;;;;1.20;1.10;;;13.60;66.50;;;;;;6128797;23;20009;-82
2023/05/01 01:26:32;;;;;;;1.10;1.00;;;13.70;66.50;;;;;;6128988;23;20471;-81
2023/05/01 01:29:40;;;;;;;1.10;1.10;;;13.60;66.40;;;;;;6104364;23;20013;-81
2023/05/01 01:32:34;;;;;;;3.10;1.13;;;13.70;66.50;;;;;;6128409;23;20020;-81
2023/05/01 01:35:17;;;;;;;1.98;1.25;;;13.60;66.50;;;;;;6153203;23;20456;-81
2023/05/01 01:38:08;;;;;;;2.05;1.05;;;13.60;66.60;;;;;;6128849;23;20017;-81
2023/05/01 01:40:42;;;;;;;1.33;1.23;;;13.60;66.50;;;;;;6153093;23;20020;-80
2023/05/01 01:43:12;;;;;;;1.40;1.30;;;13.60;67.20;;;;;;6154447;23;20001;-80
2023/05/01 01:45:43;;;;;;;1.42;1.33;;;13.60;66.60;;;;;;6153239;23;20400;-80
2023/05/01 01:48:16;;;;;;;1.60;1.48;;;13.60;66.50;;;;;;6153676;23;20092;-80
2023/05/01 01:50:45;;;;;;;1.40;1.30;;;13.60;66.50;;;;;;6128845;23;20025;-80
2023/05/01 01:53:16;;;;;;;1.40;1.30;;;13.60;66.50;;;;;;6179598;23;20056;-80
2023/05/01 01:55:44;;;;;;;1.30;1.20;;;13.60;66.60;;;;;;6128611;23;20048;-80
2023/05/01 01:58:12;;;;;;;1.35;1.25;;;13.60;66.60;;;;;;6128874;23;20008;-80
2023/05/01 02:00:41;;;;;;;1.73;1.20;;;13.60;66.50;;;;;;6153071;23;20411;-80
2023/05/01 02:03:09;;;;;;;1.30;1.20;;;13.60;66.60;;;;;;6128347;23;20040;-80
2023/05/01 02:05:38;;;;;;;1.50;1.30;;;13.60;66.50;;;;;;6152873;23;20388;-82
2023/05/01 02:08:04;;;;;;;1.23;1.10;;;13.60;66.60;;;;;;6178008;23;20359;-81
2023/05/01 02:10:33;;;;;;;1.08;1.08;;;13.50;67.30;;;;;;6152666;23;20008;-81
2023/05/01 02:13:00;;;;;;;1.17;1.00;;;13.60;66.50;;;;;;6179947;23;20451;-82
2023/05/01 02:15:27;;;;;;;1.30;1.20;;;13.60;66.60;;;;;;6143482;23;20032;-81
2023/05/01 02:17:54;;;;;;;1.58;1.17;;;13.60;66.40;;;;;;6158002;23;20419;-81
2023/05/01 02:20:21;;;;;;;1.65;1.00;;;13.60;66.50;;;;;;6182889;23;20020;-81
2023/05/01 02:22:50;;;;;;;1.90;1.00;;;13.60;66.50;;;;;;6157974;23;20012;-81
2023/05/01 02:25:16;;;;;;;0.80;0.80;;;13.50;66.40;;;;;;6158167;23;20019;-81
2023/05/01 02:27:59;;;;;;;0.95;0.95;;;13.50;66.50;;;;;;6209667;23;20390;-81
2023/05/01 02:30:25;;;;;;;1.20;1.10;;;13.60;66.50;;;;;;6158017;23;20021;-81
2023/05/01 02:32:51;;;;;;;0.88;0.88;;;13.50;66.60;;;;;;6182901;23;20016;-81
2023/05/01 02:35:17;;;;;;;1.15;1.10;;;13.60;66.50;;;;;;6182848;23;20414;-81
2023/05/01 02:37:44;;;;;;;1.83;1.23;;;13.50;66.50;;;;;;6157879;23;20011;-81
2023/05/01 02:40:13;;;;;;;1.63;1.17;;;13.50;66.50;;;;;;6208673;23;20336;-81
2023/05/01 02:42:44;;;;;;;0.85;0.85;;;13.50;66.50;;;;;;6158029;23;20027;-81
2023/05/01 02:45:18;;;;;;;1.30;1.20;;;13.60;66.40;;;;;;6182628;23;20021;-81
2023/05/01 02:47:52;;;;;;;1.13;1.02;;;13.50;66.50;;;;;;6182213;23;20047;-81
2023/05/01 02:50:20;;;;;;;0.85;0.85;;;13.50;66.60;;;;;;6182459;23;20020;-81
2023/05/01 02:52:47;;;;;;;1.00;1.00;;;13.50;66.60;;;;;;6182778;23;20017;-81
2023/05/01 02:55:28;;;;;;;1.75;1.00;;;13.50;66.60;;;;;;6157475;23;20096;-81
2023/05/01 02:57:58;;;;;;;0.85;0.85;;;13.50;66.60;;;;;;6133533;23;20256;-81
2023/05/01 03:00:27;;;;;;;1.15;0.95;;;13.50;66.60;;;;;;6157321;23;20047;-81
2023/05/01 03:02:53;;;;;;;1.15;1.05;;;13.50;67.20;;;;;;6157812;23;20024;-81
2023/05/01 03:05:19;;;;;;;1.67;1.02;;;13.60;66.80;;;;;;6182546;23;20016;-81
2023/05/01 03:07:46;;;;;;;1.05;0.95;;;13.60;66.70;;;;;;6182566;23;20490;-81
2023/05/01 03:10:12;;;;;;;1.58;0.85;;;13.60;66.80;;;;;;6183206;23;20495;-82
2023/05/01 03:12:39;;;;;;;1.20;1.10;;;13.50;67.00;;;;;;6182610;23;20480;-81
2023/05/01 03:15:05;;;;;;;1.10;1.00;;;13.50;66.80;;;;;;6146679;23;20037;-81
2023/05/01 03:17:33;;;;;;;1.80;1.33;;;13.60;67.00;;;;;;6152447;23;20025;-81
2023/05/01 03:19:58;;;;;;;1.30;1.20;;;13.60;67.00;;;;;;6152651;23;20100;-81
2023/05/01 03:22:28;;;;;;;1.20;1.13;;;13.50;67.00;;;;;;6179086;23;20363;-81
2023/05/01 03:24:54;;;;;;;1.90;1.20;;;13.50;67.00;;;;;;6129890;23;20013;-81
2023/05/01 03:27:20;;;;;;;1.85;1.63;;;13.60;67.40;;;;;;6130161;23;20543;-81
2023/05/01 03:29:46;;;;;;;1.40;1.30;;;13.60;67.40;;;;;;6154507;23;20013;-81
2023/05/01 03:32:12;;;;;;;1.95;1.42;;;13.50;67.20;;;;;;6129987;23;20095;-81
2023/05/01 03:34:38;;;;;;;1.83;1.50;;;13.60;67.20;;;;;;6154656;23;20013;-81
2023/05/01 03:37:05;;;;;;;1.50;1.40;;;13.60;67.40;;;;;;6130439;23;20009;-82
2023/05/01 03:39:31;;;;;;;1.50;1.40;;;13.60;67.20;;;;;;6130328;23;20020;-82
2023/05/01 03:42:24;;;;;;;1.77;1.50;;;13.60;67.30;;;;;;6065141;23;20022;-81
2023/05/01 03:44:55;;;;;;;1.95;1.20;;;13.60;67.30;;;;;;6040844;23;20026;-82
2023/05/01 03:47:22;;;;;;;1.77;1.25;;;13.60;67.30;;;;;;6089423;23;20580;-81
2023/05/01 03:49:48;;;;;;;1.77;1.38;;;13.60;67.20;;;;;;6041070;23;20022;-82
2023/05/01 03:52:14;;;;;;;1.55;1.45;;;13.60;67.20;;;;;;6065878;23;20010;-81
2023/05/01 03:54:41;;;;;;;1.50;1.40;;;13.60;67.20;;;;;;6089496;23;20022;-81
2023/05/01 03:57:22;;;;;;;2.05;1.35;;;13.60;67.20;;;;;;6064882;23;20201;-82
2023/05/01 03:59:49;;;;;;;2.42;1.80;;;13.70;67.50;;;;;;6089364;23;20015;-82
2023/05/01 04:02:18;;;;;;;1.70;1.60;;;13.60;67.50;;;;;;6065141;23;20014;-82
2023/05/01 04:04:45;;;;;;;2.35;1.38;;;13.60;67.30;;;;;;6089332;23;20386;-81
2023/05/01 04:07:12;;;;;;;1.75;1.50;;;13.70;67.20;;;;;;6065724;23;20081;-81
2023/05/01 04:09:38;;;;;;;1.70;1.60;;;13.70;67.40;;;;;;6064835;23;20054;-82
2023/05/01 04:12:04;;;;;;;1.90;1.77;;;13.70;67.40;;;;;;6088603;23;20026;-82
2023/05/01 04:14:30;;;;;;;2.95;1.55;;;13.70;67.30;;;;;;6088979;23;20081;-82
2023/05/01 04:16:58;;;;;;;1.40;1.30;;;13.70;67.60;;;;;;6065043;23;20422;-82
2023/05/01 04:19:24;;;;;;;2.33;1.70;;;13.70;67.50;;;;;;6105725;23;20009;-82
2023/05/01 04:21:54;;;;;;;3.15;1.67;;;13.70;67.70;;;;;;6106175;23;20473;-81
2023/05/01 04:24:20;;;;;;;2.42;1.80;;;13.70;67.50;;;;;;6129606;23;20443;-81
2023/05/01 04:26:46;;;;;;;3.00;1.67;;;13.70;67.60;;;;;;6179914;23;20040;-81
2023/05/01 04:29:13;;;;;;;1.95;1.80;;;13.80;67.60;;;;;;6129134;23;20017;-81
2023/05/01 04:31:40;;;;;;;1.30;1.13;;;13.80;67.30;;;;;;6178829;23;20009;-81
2023/05/01 04:34:06;;;;;;;1.70;1.40;;;13.80;67.20;;;;;;6154340;23;20060;-80
2023/05/01 04:36:34;;;;;;;1.30;1.10;;;13.80;67.30;;;;;;6129175;23;20021;-80
2023/05/01 04:39:00;;;;;;;1.27;1.17;;;13.80;67.40;;;;;;6153722;23;20672;-80
2023/05/01 04:41:28;;;;;;;2.00;1.30;;;13.80;67.30;;;;;;6153775;23;20091;-82
2023/05/01 04:43:54;;;;;;;1.23;1.10;;;13.80;67.00;;;;;;6128867;23;20360;-82
2023/05/01 04:46:20;;;;;;;1.98;1.23;;;13.80;67.00;;;;;;6129759;23;20017;-82
2023/05/01 04:48:46;;;;;;;2.05;1.33;;;13.90;67.10;;;;;;6129044;23;20028;-80
2023/05/01 04:51:12;;;;;;;1.90;1.10;;;13.90;67.10;;;;;;6153908;23;20021;-82
2023/05/01 04:53:39;;;;;;;1.02;1.02;;;13.90;67.10;;;;;;6129221;23;20021;-82
2023/05/01 04:56:14;;;;;;;1.30;1.20;;;13.90;67.20;;;;;;6153300;23;20024;-81
2023/05/01 04:58:41;;;;;;;1.55;1.33;;;13.90;67.10;;;;;;6153831;23;20009;-82
2023/05/01 05:01:12;;;;;;;1.58;1.20;;;13.90;67.60;;;;;;6154102;23;20409;-82
2023/05/01 05:03:38;;;;;;;1.40;1.30;;;13.90;67.20;;;;;;6153603;23;20020;-82
2023/05/01 05:06:05;;;;;;;1.42;1.27;;;13.90;67.50;;;;;;6128862;23;20013;-82
2023/05/01 05:08:31;;;;;;;1.20;1.10;;;13.90;67.60;;;;;;6128728;23;20041;-82
2023/05/01 05:11:07;;;;;;;1.95;1.50;;;13.90;67.40;;;;;;6153625;23;20365;-82
2023/05/01 05:13:47;;;;;;;1.50;1.40;;;13.90;67.40;;;;;;6153696;23;20356;-82
2023/05/01 05:16:14;;;;;;;1.70;1.60;;;14.00;67.40;;;;;;6153375;23;20017;-81
2023/05/01 05:18:40;;;;;;;2.50;1.60;;;13.90;67.50;;;;;;6153792;23;20105;-81
2023/05/01 05:21:07;;;;;;;1.35;1.25;;;14.00;67.60;;;;;;6128858;23;20500;-80
2023/05/01 05:23:33;;;;;;;1.70;1.60;;;14.00;67.60;;;;;;6138364;23;20024;-80
2023/05/01 05:26:00;;;;;;;2.17;1.60;;;14.00;67.50;;;;;;6153399;23;20013;-82
2023/05/01 05:28:27;;;;;;;1.83;1.58;;;14.00;67.50;;;;;;6128975;23;20115;-81
2023/05/01 05:30:54;;;;;;;1.67;1.58;;;14.00;67.70;;;;;;6154065;23;20064;-80
2023/05/01 05:33:21;;;;;;;1.63;1.52;;;14.00;67.70;;;;;;6153361;23;20017;-81
2023/05/01 05:35:48;;;;;;;1.75;1.50;;;14.00;67.60;;;;;;6128545;23;20024;-81
2023/05/01 05:38:14;;;;;;;1.63;1.45;;;14.00;67.70;;;;;;6128498;23;20017;-81
2023/05/01 05:40:44;;;;;;;1.63;1.52;;;14.10;67.70;;;;;;6104326;23;20008;-81
2023/05/01 05:43:11;;;;;;;1.67;1.58;;;14.10;67.50;;;;;;6129265;23;20008;-81
2023/05/01 05:45:38;;;;;;;1.63;1.50;;;14.10;67.60;;;;;;6152869;23;20017;-81
2023/05/01 05:48:04;;;;;;;1.77;1.60;;;14.10;67.50;;;;;;6153145;23;20176;-80
2023/05/01 05:50:33;;;;;;;1.60;1.50;;;14.10;67.50;;;;;;6177697;23;20433;-82
2023/05/01 05:52:59;;;;;;;2.33;1.60;;;14.10;67.40;;;;;;6153453;23;20024;-82
2023/05/01 05:55:25;;;;;;;1.60;1.45;;;14.10;67.40;;;;;;6153171;23;20036;-82
2023/05/01 05:58:00;;;;;;;1.75;1.65;;;14.10;67.50;;;;;;6154054;23;20020;-82
2023/05/01 06:00:27;;;;;;;1.42;1.33;;;14.10;67.60;;;;;;6152988;23;20061;-82
2023/05/01 06:02:55;;;;;;;2.22;1.65;;;14.10;67.60;;;;;;6128703;23;20562;-82
2023/05/01 06:05:23;;;;;;;2.55;1.80;;;14.10;67.40;;;;;;6153062;23;20095;-82
2023/05/01 06:07:50;;;;;;;2.20;1.75;;;14.20;67.50;;;;;;6128240;23;20103;-82
2023/05/01 06:10:16;;;;;;;1.98;1.70;;;14.20;67.50;;;;;;6153271;23;20013;-82
2023/05/01 06:12:42;;;;;;;2.28;1.40;;;14.20;67.50;;;;;;6128465;23;20017;-82
2023/05/01 06:15:08;;;;;;;2.08;1.70;;;14.20;67.40;;;;;;6128229;23;20067;-82
2023/05/01 06:17:40;;;;;;;1.90;1.80;;;14.20;67.40;;;;;;6128404;23;20028;-82
2023/05/01 06:20:07;;;;;;;1.83;1.65;;;14.20;67.30;;;;;;6178233;23;20028;-81
2023/05/01 06:22:34;;;;;;;2.03;1.65;;;14.20;68.00;;;;;;6153175;23;20345;-82
2023/05/01 06:25:09;;;;;;;2.22;1.55;;;14.20;67.20;;;;;;6178285;23;20036;-82
2023/05/01 06:27:35;;;;;;;1.73;1.63;;;14.30;67.20;;;;;;6128338;23;20017;-82
2023/05/01 06:30:02;;;;;;;1.90;1.77;;;14.30;67.20;;;;;;6128174;23;20020;-82
2023/05/01 06:32:29;;;;;;;1.95;1.80;;;14.30;67.10;;;;;;6152858;23;20468;-82
2023/05/01 06:34:56;;;;;;;2.05;1.80;;;14.30;67.20;;;;;;6152513;23;20364;-82
2023/05/01 06:37:23;;;;;;;2.50;1.63;;;14.30;67.00;;;;;;6153446;23;20013;-82
2023/05/01 06:39:49;;;;;;;3.25;1.90;;;14.40;66.70;;;;;;6128449;23;20477;-82
2023/05/01 06:42:15;;;;;;;1.85;1.73;;;14.40;66.80;;;;;;6103713;23;20092;-82
2023/05/01 06:44:42;;;;;;;2.22;1.85;;;14.40;66.80;;;;;;6152607;23;20376;-82
2023/05/01 06:47:08;;;;;;;2.60;1.90;;;14.40;66.70;;;;;;6152620;23;20028;-82
2023/05/01 06:49:34;;;;;;;3.03;2.17;;;14.40;66.70;;;;;;6127790;23;20013;-81
2023/05/01 06:52:01;;;;;;;2.20;2.00;;;14.50;66.60;;;;;;6153267;23;20115;-81
2023/05/01 06:54:27;;;;;;;1.95;1.83;;;14.50;66.60;;;;;;6128158;23;20527;-81
2023/05/01 06:56:53;;;;;;;2.55;1.98;;;14.50;66.40;;;;;;6151916;23;20021;-80
2023/05/01 06:59:19;;;;;;;2.90;2.38;;;14.50;66.30;;;;;;6129236;23;20409;-80
2023/05/01 07:01:45;;;;;;;3.60;2.58;;;14.60;66.30;;;;;;6154810;23;20017;-81
2023/05/01 07:04:11;;;;;;;3.10;1.98;;;14.60;66.30;;;;;;6130747;23;20019;-81
2023/05/01 07:06:37;;;;;;;2.15;1.98;;;14.70;66.10;;;;;;6154379;23;20450;-81
2023/05/01 07:09:06;;;;;;;3.30;2.25;;;14.70;66.00;;;;;;6180854;23;20063;-81
2023/05/01 07:11:32;;;;;;;3.08;1.98;;;14.70;65.90;;;;;;6179423;23;20071;-81
2023/05/01 07:13:59;;;;;;;3.55;2.10;;;14.70;65.80;;;;;;6154185;23;20036;-81
2023/05/01 07:16:25;;;;;;;3.42;2.38;;;14.70;65.70;;;;;;6181793;23;20028;-81
2023/05/01 07:18:51;;;;;;;5.00;2.30;;;14.80;65.40;;;;;;6160374;23;20351;-81
2023/05/01 07:21:17;;;;;;;3.00;2.50;;;14.80;65.40;;;;;;6158743;23;20048;-81
2023/05/01 07:23:43;;;;;;;3.75;2.45;;;14.80;65.20;;;;;;6159240;23;20028;-82
2023/05/01 07:26:09;;;;;;;2.83;2.50;;;14.90;65.20;;;;;;6184421;23;20013;-83
2023/05/01 07:28:35;;;;;;;4.57;2.55;;;14.90;64.80;;;;;;6184076;23;20012;-80
2023/05/01 07:31:01;;;;;;;2.95;2.28;;;14.90;64.70;;;;;;6136044;23;20351;-82
2023/05/01 07:33:28;;;;;;;3.72;2.35;;;15.00;64.40;;;;;;6209707;23;20016;-82
2023/05/01 07:35:54;;;;;;;2.67;2.13;;;15.00;64.40;;;;;;6183906;23;20422;-83
2023/05/01 07:38:20;;;;;;;2.67;2.40;;;15.00;64.20;;;;;;6159474;23;20013;-83
2023/05/01 07:40:46;;;;;;;4.13;2.60;;;15.00;64.00;;;;;;6210819;23;20013;-81
2023/05/01 07:43:12;;;;;;;3.35;2.30;;;15.10;63.90;;;;;;6159702;23;20444;-81
2023/05/01 07:45:41;;;;;;;5.70;2.63;;;15.10;63.90;;;;;;6210702;23;20380;-81
2023/05/01 07:48:08;;;;;;;3.35;2.63;;;15.10;63.70;;;;;;6183599;23;20025;-81
2023/05/01 07:50:34;;;;;;;3.13;2.55;;;15.20;63.40;;;;;;6183886;23;20043;-81
2023/05/01 07:53:00;;;;;;;4.82;2.53;;;15.20;63.30;;;;;;6209338;23;20464;-80
2023/05/01 07:55:26;;;;;;;3.60;2.20;;;15.20;63.80;;;;;;6210529;23;20008;-81
2023/05/01 07:57:52;;;;;;;3.38;2.20;;;15.30;63.10;;;;;;6184969;23;20084;-82
2023/05/01 08:00:18;;;;;;;2.40;2.20;;;15.30;62.80;;;;;;6159276;23;20089;-81
2023/05/01 08:02:44;;;;;;;5.53;2.45;;;15.30;63.20;;;;;;6184049;23;20020;-81
2023/05/01 08:05:10;;;;;;;3.03;2.38;;;15.40;62.40;;;;;;6159046;23;20043;-82
2023/05/01 08:07:52;;;;;;;2.42;1.83;;;15.40;62.10;;;;;;6183731;23;20009;-83
2023/05/01 08:13:32;;;;;;;3.85;2.30;;;15.40;61.70;;;;;;6208904;23;20012;-81
2023/05/01 08:16:02;;;;;;;2.75;2.00;;;15.50;61.60;;;;;;6163209;23;20021;-81
2023/05/01 08:18:42;;;;;;;3.53;2.60;;;15.60;61.60;;;;;;6131739;23;20029;-82
2023/05/01 08:21:10;;;;;;;3.47;1.95;;;15.60;61.50;;;;;;6130080;23;20021;-81
2023/05/01 08:23:36;;;;;;;3.38;2.28;;;15.70;61.30;;;;;;6130166;23;20037;-82
2023/05/01 08:26:03;;;;;;;1.77;1.67;;;15.70;61.30;;;;;;6130120;23;20092;-80
2023/05/01 08:28:29;;;;;;;2.78;2.25;;;15.80;61.20;;;;;;6130228;23;20051;-81
2023/05/01 08:30:55;;;;;;;3.90;2.17;;;15.90;61.10;;;;;;6181912;23;20005;-80
2023/05/01 08:33:21;;;;;;;2.15;1.88;;;15.90;60.70;;;;;;6155050;23;20059;-81
2023/05/01 08:35:48;;;;;;;3.42;2.08;;;15.90;60.60;;;;;;6153841;23;20021;-81
2023/05/01 08:38:17;;;;;;;1.88;1.65;;;16.00;60.60;;;;;;6129252;23;20487;-81
2023/05/01 08:40:50;;;;;;;2.63;2.08;;;16.00;60.40;;;;;;6155050;23;20013;-80
2023/05/01 08:43:16;;;;;;;3.00;1.80;;;16.10;60.30;;;;;;6130017;23;20404;-81
2023/05/01 08:45:45;;;;;;;2.90;2.08;;;16.00;60.00;;;;;;6129298;23;20376;-80
2023/05/01 08:48:11;;;;;;;2.67;1.90;;;16.10;60.00;;;;;;6129686;23;20079;-81
2023/05/01 08:50:38;;;;;;;5.53;2.00;;;16.10;59.80;;;;;;6128695;23;20013;-81
2023/05/01 08:53:05;;;;;;;2.08;1.85;;;16.10;59.60;;;;;;6178781;23;20017;-81
2023/05/01 08:55:32;;;;;;;3.08;2.13;;;16.10;59.50;;;;;;6153981;23;20068;-82
2023/05/01 08:57:58;;;;;;;2.33;2.10;;;16.10;59.40;;;;;;6154245;23;20040;-82
2023/05/01 09:00:26;;;;;;;3.75;2.30;;;16.20;59.90;;;;;;6128864;23;20020;-81
2023/05/01 09:02:51;;;;;;;2.45;2.05;;;16.20;59.00;;;;;;6105884;23;20032;-81
2023/05/01 09:05:19;;;;;;;5.05;1.98;;;16.20;59.10;;;;;;6132892;23;20016;-82
2023/05/01 09:07:46;;;;;;;2.53;2.05;;;16.20;59.00;;;;;;6107270;23;20044;-81
2023/05/01 09:10:15;;;;;;;3.03;2.15;;;16.20;58.90;;;;;;6156646;23;20041;-81
2023/05/01 09:12:51;;;;;;;4.13;2.28;;;16.30;58.90;;;;;;6132573;23;20076;-82
2023/05/01 09:15:17;;;;;;;2.42;2.20;;;16.30;58.80;;;;;;6180862;23;20033;-82
2023/05/01 09:17:44;;;;;;;3.30;2.15;;;16.30;58.80;;;;;;6129508;23;20029;-82
2023/05/01 09:20:10;;;;;;;2.97;2.35;;;16.20;58.80;;;;;;6180338;23;20491;-83
2023/05/01 09:22:36;;;;;;;2.55;1.83;;;16.20;58.70;;;;;;6154098;23;20095;-80
2023/05/01 09:25:03;;;;;;;2.85;2.38;;;16.30;58.80;;;;;;6129492;23;20013;-81
2023/05/01 09:27:34;;;;;;;2.90;2.35;;;16.30;58.70;;;;;;6177591;23;20040;-81
2023/05/01 09:30:00;;;;;;;2.78;2.45;;;16.30;58.80;;;;;;6153735;23;20039;-80
2023/05/01 09:32:29;;;;;;;3.35;2.50;;;16.30;58.80;;;;;;6128814;23;20017;-82
2023/05/01 09:35:12;;;;;;;2.72;2.42;;;16.30;58.80;;;;;;6128652;23;20035;-82
2023/05/01 09:37:38;;;;;;;2.88;2.25;;;16.40;58.90;;;;;;6128765;23;20009;-81
2023/05/01 09:40:05;;;;;;;3.53;2.13;;;16.40;58.80;;;;;;6180223;23;20005;-80
2023/05/01 09:42:32;;;;;;;3.05;2.17;;;16.40;58.80;;;;;;6153443;23;20013;-80
2023/05/01 09:45:00;;;;;;;2.83;2.28;;;16.50;58.60;;;;;;6128204;23;20025;-81
2023/05/01 09:47:28;;;;;;;3.28;2.20;;;16.50;58.50;;;;;;6179385;23;20021;-81
2023/05/01 09:49:56;;;;;;;3.35;2.33;;;16.50;58.60;;;;;;6104339;23;20035;-81
2023/05/01 09:52:34;;;;;;;2.45;1.85;;;16.60;58.50;;;;;;6153504;23;20048;-81
2023/05/01 09:55:17;;;;;;;2.08;1.88;;;16.60;58.30;;;;;;6153325;23;20311;-81
2023/05/01 09:57:45;;;;;;;2.95;2.10;;;16.60;58.30;;;;;;6152936;23;20021;-82
2023/05/01 10:00:12;;;;;;;2.67;2.33;;;16.60;58.10;;;;;;6153189;23;20035;-82
2023/05/01 10:02:40;;;;;;;3.17;2.40;;;16.70;58.00;;;;;;6153332;23;20040;-82
2023/05/01 10:05:08;;;;;;;2.63;2.13;;;16.70;57.80;;;;;;6128852;23;20096;-83
2023/05/01 10:07:34;;;;;;;2.42;2.22;;;16.70;57.80;;;;;;6104271;23;20487;-82
2023/05/01 10:10:20;;;;;;;3.55;2.10;;;16.80;57.60;;;;;;6129174;23;20095;-82
2023/05/01 10:12:47;;;;;;;2.60;2.30;;;16.80;57.70;;;;;;6103974;23;20103;-81
2023/05/01 10:15:14;;;;;;;2.80;1.85;;;16.80;57.40;;;;;;6179224;23;20039;-81
2023/05/01 10:17:42;;;;;;;3.28;2.30;;;16.80;57.30;;;;;;6150836;23;20027;-81
2023/05/01 10:20:11;;;;;;;3.47;2.03;;;16.80;57.10;;;;;;6128441;23;20017;-82
2023/05/01 10:22:40;;;;;;;2.45;2.17;;;16.90;57.10;;;;;;6127958;23;20016;-81
2023/05/01 10:25:11;;;;;;;2.17;1.88;;;16.90;56.90;;;;;;6104440;23;20388;-82
2023/05/01 10:27:40;;;;;;;3.35;2.45;;;16.90;56.80;;;;;;6179618;23;20017;-82
2023/05/01 10:30:08;;;;;;;2.60;2.10;;;16.90;56.80;;;;;;6152853;23;20024;-82
2023/05/01 10:32:36;;;;;;;3.05;2.40;;;16.90;56.70;;;;;;6152660;23;20028;-80
2023/05/01 10:35:23;;;;;;;2.88;2.50;;;16.90;56.70;;;;;;6128176;23;20013;-81
2023/05/01 10:38:01;;;;;;;3.20;2.20;;;16.90;56.70;;;;;;6152722;23;20479;-81
2023/05/01 10:40:41;;;;;;;2.33;2.00;;;16.90;56.80;;;;;;6104210;23;20099;-80
2023/05/01 10:43:28;;;;;;;2.47;2.13;;;16.90;56.80;;;;;;6153475;23;20051;-81
2023/05/01 10:46:06;;;;;;;3.45;2.08;;;16.90;56.80;;;;;;6128662;23;20468;-81
2023/05/01 10:48:39;;;;;;;2.33;1.90;;;16.80;56.70;;;;;;6152919;23;20079;-81
2023/05/01 10:51:22;;;;;;;2.22;2.00;;;16.90;56.90;;;;;;6153150;23;20071;-81
2023/05/01 10:54:11;;;;;;;2.47;1.80;;;16.90;57.00;;;;;;6128588;23;20052;-81
2023/05/01 10:56:37;;;;;;;1.73;1.63;;;16.90;57.10;;;;;;6127735;23;20037;-81
2023/05/01 10:59:04;;;;;;;2.60;2.10;;;16.80;56.90;;;;;;6152894;23;20356;-81
2023/05/01 11:01:35;;;;;;;6.07;2.30;;;16.80;56.80;;;;;;6127749;23;20036;-81
2023/05/01 11:04:04;;;;;;;2.53;1.98;;;16.80;56.80;;;;;;6128742;23;20020;-81
2023/05/01 11:06:30;;;;;;;4.05;2.17;;;16.80;56.80;;;;;;6103956;23;20014;-83
2023/05/01 11:08:56;;;;;;;2.95;1.85;;;16.70;56.90;;;;;;6128123;23;20487;-81
2023/05/01 11:11:25;;;;;;;2.92;1.88;;;16.80;57.00;;;;;;6127637;23;20088;-81
2023/05/01 11:13:59;;;;;;;3.75;1.58;;;16.70;57.10;;;;;;6104049;23;20024;-81
2023/05/01 11:16:43;;;;;;;1.88;1.70;;;16.70;57.30;;;;;;6149973;23;20016;-81
2023/05/01 11:19:19;;;;;;;2.72;1.70;;;16.70;57.20;;;;;;6128790;23;20063;-81
2023/05/01 11:21:46;;;;;;;2.03;1.80;;;16.70;57.20;;;;;;6128621;23;20064;-81
2023/05/01 11:24:12;;;;;;;1.90;1.65;;;16.70;57.30;;;;;;6152899;23;20048;-81
2023/05/01 11:26:41;;;;;;;1.95;1.50;;;16.70;57.30;;;;;;6152556;23;20023;-82
2023/05/01 11:29:09;;;;;;;2.95;1.50;;;16.60;57.20;;;;;;6153125;23;20020;-82
2023/05/01 11:31:35;;;;;;;4.65;1.83;;;16.60;57.30;;;;;;6127751;23;20009;-81
2023/05/01 11:34:02;;;;;;;3.33;1.65;;;16.60;57.30;;;;;;6128921;23;20015;-82
2023/05/01 11:36:46;;;;;;;2.90;1.88;;;16.60;57.20;;;;;;6153090;23;20025;-81
2023/05/01 11:39:16;;;;;;;3.58;1.60;;;16.60;57.30;;;;;;6128100;23;20096;-82
2023/05/01 11:41:42;;;;;;;2.90;1.90;;;16.60;57.10;;;;;;6152601;23;20087;-82
2023/05/01 11:44:11;;;;;;;1.98;1.20;;;16.60;57.00;;;;;;6128193;23;20108;-81
2023/05/01 11:46:37;;;;;;;2.33;1.67;;;16.50;57.00;;;;;;6129448;23;20020;-81
2023/05/01 11:49:04;;;;;;;3.53;1.52;;;16.60;57.10;;;;;;6154913;23;20020;-82
2023/05/01 11:51:30;;;;;;;1.60;1.23;;;16.60;57.20;;;;;;6129526;23;20083;-82
2023/05/01 11:54:14;;;;;;;1.95;1.25;;;16.50;57.10;;;;;;6153657;23;20024;-82
2023/05/01 11:56:41;;;;;;;2.30;1.75;;;16.50;57.10;;;;;;6180234;23;20021;-81
2023/05/01 11:59:15;;;;;;;2.13;1.48;;;16.60;57.10;;;;;;6179441;23;20017;-82
2023/05/01 12:01:45;;;;;;;1.60;1.47;;;16.60;57.10;;;;;;6154109;23;20071;-82
2023/05/01 12:04:13;;;;;;;2.97;1.63;;;16.60;57.20;;;;;;6154674;23;20023;-82
2023/05/01 12:06:48;;;;;;;1.42;1.25;;;16.60;57.20;;;;;;6153914;23;20342;-82
2023/05/01 12:09:19;;;;;;;2.80;1.30;;;16.60;57.60;;;;;;6105120;23;20017;-82
2023/05/01 12:11:47;;;;;;;2.30;1.20;;;16.50;56.90;;;;;;6154144;23;20280;-82
2023/05/01 12:14:17;;;;;;;2.25;1.33;;;16.50;56.80;;;;;;6129703;23;20064;-82
2023/05/01 12:16:44;;;;;;;1.63;1.27;;;16.50;56.70;;;;;;6154051;23;20024;-81
2023/05/01 12:19:12;;;;;;;1.40;1.25;;;16.50;56.70;;;;;;6105916;23;20012;-82
2023/05/01 12:21:39;;;;;;;1.40;1.30;;;16.50;56.70;;;;;;6104653;23;20534;-83
2023/05/01 12:24:16;;;;;;;2.85;1.25;;;16.40;56.60;;;;;;6153998;23;20021;-81
2023/05/01 12:26:43;;;;;;;1.42;1.30;;;16.40;56.80;;;;;;6129983;23;20017;-81
2023/05/01 12:29:10;;;;;;;2.00;1.23;;;16.40;56.70;;;;;;6178793;23;20528;-81
2023/05/01 12:31:44;;;;;;;1.23;1.00;;;16.40;56.70;;;;;;6153613;23;20072;-82
2023/05/01 12:34:11;;;;;;;1.17;1.00;;;16.30;56.60;;;;;;6154752;23;20067;-81
2023/05/01 12:36:37;;;;;;;1.80;1.40;;;16.30;56.80;;;;;;6129563;23;20051;-80
2023/05/01 12:39:12;;;;;;;1.60;1.50;;;16.30;56.80;;;;;;6154213;23;20025;-81
2023/05/01 12:41:41;;;;;;;2.28;1.10;;;16.20;56.70;;;;;;6129203;23;20404;-80
2023/05/01 12:44:21;;;;;;;1.55;1.10;;;16.20;56.80;;;;;;6153884;23;20372;-82
2023/05/01 12:47:00;;;;;;;1.23;1.10;;;16.20;56.90;;;;;;6153874;23;20036;-82
2023/05/01 12:49:27;;;;;;;1.20;1.10;;;16.20;57.00;;;;;;6129720;23;20009;-82
2023/05/01 12:51:55;;;;;;;1.17;0.85;;;16.10;57.10;;;;;;6180882;23;20013;-82
2023/05/01 12:54:36;;;;;;;1.42;0.90;;;16.10;57.10;;;;;;6154030;23;20028;-82
2023/05/01 12:57:09;;;;;;;0.82;0.82;;;16.00;56.90;;;;;;6153579;23;20400;-82
2023/05/01 12:59:37;;;;;;;1.60;1.25;;;16.00;56.90;;;;;;6153597;23;20091;-82
2023/05/01 13:02:05;;;;;;;2.70;1.35;;;15.90;56.70;;;;;;6129235;23;20044;-82